Time;durP1;ratioP1;P1;durP2;ratioP2;P2;SDS_P1;SDS_P2;PMS_P1;PMS_P2;Temp;Humidity;BMP_temperature;BMP_pressure;BME280_temperature;BME280_humidity;BME280_pressure;Samples;Min_cycle;Max_cycle;Signal;HPM_P1;HPM_P2
2021/12/14 00:01:31;;;;;;;1.00;0.80;;;5.60;99.90;;;;;;5045302;28;20045;-61
2021/12/14 00:04:03;;;;;;;0.75;0.75;;;5.70;99.90;;;;;;5047277;28;20124;-60
2021/12/14 00:06:29;;;;;;;1.25;0.70;;;5.60;99.90;;;;;;5054252;28;20118;-60
2021/12/14 00:08:57;;;;;;;2.08;0.95;;;5.60;99.90;;;;;;5041474;28;20028;-59
2021/12/14 00:17:10;;;;;;;1.60;0.82;;;5.60;99.90;;;;;;5030843;28;20470;-59
2021/12/14 00:19:37;;;;;;;1.10;0.88;;;5.60;99.90;;;;;;5020991;28;20049;-57
2021/12/14 00:22:17;;;;;;;1.70;1.00;;;5.60;99.90;;;;;;5026592;28;20064;-57
2021/12/14 00:24:43;;;;;;;1.55;0.90;;;5.60;99.90;;;;;;5024227;28;20038;-59
2021/12/14 00:27:11;;;;;;;2.92;0.85;;;5.60;99.90;;;;;;5029119;28;20048;-59
2021/12/14 00:29:41;;;;;;;1.70;0.98;;;5.60;99.90;;;;;;5025065;28;20049;-59
2021/12/14 00:32:13;;;;;;;1.73;0.70;;;5.60;99.90;;;;;;5024213;28;20490;-59
2021/12/14 00:34:42;;;;;;;3.53;0.90;;;5.70;99.90;;;;;;5022050;28;20430;-57
2021/12/14 00:37:15;;;;;;;2.60;0.90;;;5.60;99.90;;;;;;5023651;28;20108;-60
2021/12/14 00:39:42;;;;;;;1.40;1.00;;;5.60;99.90;;;;;;5020914;28;20128;-57
2021/12/14 00:42:07;;;;;;;0.73;0.70;;;5.60;99.90;;;;;;5025838;28;20108;-58
2021/12/14 00:44:34;;;;;;;1.77;0.80;;;5.60;99.90;;;;;;5019566;28;20093;-60
2021/12/14 00:47:01;;;;;;;1.10;0.70;;;5.70;99.90;;;;;;5024647;28;20041;-59
2021/12/14 00:49:27;;;;;;;1.10;0.88;;;5.60;99.90;;;;;;5019791;28;20053;-59
2021/12/14 00:51:54;;;;;;;1.42;0.93;;;5.60;99.90;;;;;;5024902;28;20470;-58
2021/12/14 00:54:20;;;;;;;0.90;0.80;;;5.60;99.90;;;;;;5020665;28;20044;-57
2021/12/14 00:56:48;;;;;;;0.85;0.75;;;5.60;99.90;;;;;;5026967;28;20037;-59
2021/12/14 00:59:14;;;;;;;1.10;1.00;;;5.60;99.90;;;;;;5025024;28;20049;-60
2021/12/14 01:01:47;;;;;;;1.80;1.20;;;5.60;99.90;;;;;;5024155;28;20041;-58
2021/12/14 01:04:18;;;;;;;1.75;1.10;;;5.70;99.90;;;;;;5025812;28;20060;-59
2021/12/14 01:06:46;;;;;;;1.73;1.23;;;5.70;99.90;;;;;;5024349;28;20064;-57
2021/12/14 01:09:16;;;;;;;1.60;1.27;;;5.70;99.90;;;;;;5019520;28;20041;-60
2021/12/14 01:11:45;;;;;;;2.40;1.35;;;5.70;99.90;;;;;;5025165;28;20100;-57
2021/12/14 01:14:14;;;;;;;2.25;1.42;;;5.70;99.90;;;;;;5025630;28;20095;-60
2021/12/14 01:16:55;;;;;;;1.45;1.20;;;5.70;99.90;;;;;;5024623;28;20052;-59
2021/12/14 01:19:29;;;;;;;5.45;1.30;;;5.70;99.90;;;;;;5025147;28;20045;-58
2021/12/14 01:27:33;;;;;;;3.00;1.58;;;5.70;99.90;;;;;;5029934;28;20068;-60
2021/12/14 01:30:03;;;;;;;1.95;1.25;;;5.70;99.90;;;;;;5021873;28;20033;-58
2021/12/14 01:32:31;;;;;;;1.92;1.27;;;5.60;99.90;;;;;;5023757;28;20038;-59
2021/12/14 01:34:57;;;;;;;2.33;1.38;;;5.60;99.90;;;;;;5018494;28;20401;-59
2021/12/14 01:37:27;;;;;;;2.22;1.55;;;5.60;99.90;;;;;;5016158;28;20054;-59
2021/12/14 01:40:16;;;;;;;2.10;1.50;;;5.60;99.90;;;;;;5036120;28;20327;-59
2021/12/14 01:42:43;;;;;;;3.72;1.70;;;5.60;99.90;;;;;;5024346;28;20464;-60
2021/12/14 01:45:15;;;;;;;2.05;1.52;;;5.60;99.90;;;;;;5020408;28;20045;-60
2021/12/14 01:47:49;;;;;;;2.30;1.80;;;5.60;99.90;;;;;;5028298;28;20056;-57
2021/12/14 01:50:23;;;;;;;4.10;1.75;;;5.60;99.90;;;;;;5021197;28;20065;-60
2021/12/14 01:52:49;;;;;;;2.67;1.60;;;5.60;99.90;;;;;;5025566;28;20037;-57
2021/12/14 01:55:24;;;;;;;2.97;1.60;;;5.60;99.90;;;;;;5023327;28;20039;-57
2021/12/14 01:57:53;;;;;;;2.03;1.70;;;5.60;99.90;;;;;;5026133;28;20120;-59
2021/12/14 02:00:34;;;;;;;2.17;1.70;;;5.60;99.90;;;;;;5018913;28;20037;-59
2021/12/14 02:03:04;;;;;;;2.78;2.10;;;5.60;99.90;;;;;;5018872;28;20048;-60
2021/12/14 02:05:35;;;;;;;2.05;1.45;;;5.60;99.90;;;;;;5021989;28;20073;-59
2021/12/14 02:08:12;;;;;;;2.50;1.90;;;5.70;99.90;;;;;;5011054;28;20029;-58
2021/12/14 02:10:38;;;;;;;2.13;1.67;;;5.60;99.90;;;;;;5020647;28;20069;-60
2021/12/14 02:13:06;;;;;;;3.10;1.98;;;5.60;99.90;;;;;;5026230;28;20079;-60
2021/12/14 02:15:44;;;;;;;2.03;1.60;;;5.70;99.90;;;;;;5021217;28;20048;-59
2021/12/14 02:18:14;;;;;;;2.30;1.52;;;5.70;99.90;;;;;;5019705;28;20091;-59
2021/12/14 02:20:48;;;;;;;2.85;2.10;;;5.70;99.90;;;;;;5022996;28;20033;-59
2021/12/14 02:23:13;;;;;;;2.67;1.85;;;5.80;99.90;;;;;;5022143;28;20041;-61
2021/12/14 02:25:39;;;;;;;2.88;2.28;;;5.70;99.90;;;;;;5018828;28;20061;-59
2021/12/14 02:28:07;;;;;;;;;;;5.70;99.90;;;;;;5027223;28;20486;-59
2021/12/14 02:30:33;;;;;;;3.50;2.03;;;5.70;99.90;;;;;;5020280;28;19928;-60
2021/12/14 02:33:08;;;;;;;2.58;1.73;;;5.60;99.90;;;;;;5017815;28;20033;-59
2021/12/14 02:35:35;;;;;;;3.47;1.63;;;5.60;99.90;;;;;;5021658;28;20041;-59
2021/12/14 02:38:06;;;;;;;2.70;1.67;;;5.70;99.90;;;;;;5019115;28;20087;-60
2021/12/14 02:40:55;;;;;;;1.75;1.50;;;5.70;99.90;;;;;;5020336;28;20041;-59
2021/12/14 02:43:48;;;;;;;3.55;2.00;;;5.70;99.90;;;;;;5018019;28;20049;-58
2021/12/14 02:46:36;;;;;;;2.22;1.85;;;5.70;99.90;;;;;;5021814;28;20436;-57
2021/12/14 02:49:06;;;;;;;3.20;1.85;;;5.70;99.90;;;;;;5014791;28;20057;-58
2021/12/14 02:51:36;;;;;;;2.70;1.90;;;5.70;99.90;;;;;;5020687;28;20037;-59
2021/12/14 02:54:10;;;;;;;2.95;2.05;;;5.70;99.90;;;;;;5013899;28;20490;-59
2021/12/14 02:56:38;;;;;;;2.30;1.60;;;5.80;99.90;;;;;;5022700;28;20041;-59
2021/12/14 02:59:19;;;;;;;3.58;1.70;;;5.80;99.90;;;;;;5015636;28;20045;-60
2021/12/14 03:01:49;;;;;;;3.13;1.55;;;5.90;99.90;;;;;;5018055;28;20594;-60
2021/12/14 03:04:16;;;;;;;3.42;1.90;;;5.80;99.90;;;;;;5017434;28;20083;-61
2021/12/14 03:06:49;;;;;;;5.03;2.22;;;5.90;99.90;;;;;;5022763;28;20064;-60
2021/12/14 03:12:12;;;;;;;3.25;2.05;;;5.80;99.90;;;;;;5021628;28;20041;-54
2021/12/14 03:14:46;;;;;;;4.50;2.15;;;5.80;99.90;;;;;;5017228;28;20095;-59
2021/12/14 03:17:11;;;;;;;5.28;2.53;;;5.80;99.90;;;;;;5021786;28;20065;-60
2021/12/14 03:19:37;;;;;;;3.47;2.50;;;5.90;99.90;;;;;;5016187;28;20677;-60
2021/12/14 03:22:20;;;;;;;4.60;2.58;;;5.90;99.90;;;;;;5023858;28;20077;-59
2021/12/14 03:24:45;;;;;;;4.35;2.70;;;5.80;99.90;;;;;;5015981;28;20038;-60
2021/12/14 03:27:11;;;;;;;3.42;2.30;;;5.80;99.90;;;;;;5022101;28;20048;-57
2021/12/14 03:29:37;;;;;;;3.83;2.72;;;5.80;99.90;;;;;;5021118;28;20041;-57
2021/12/14 03:32:03;;;;;;;3.53;2.40;;;5.70;99.90;;;;;;5021059;28;20061;-59
2021/12/14 03:34:34;;;;;;;3.63;2.15;;;5.70;99.90;;;;;;5019611;28;20026;-59
2021/12/14 03:37:06;;;;;;;3.47;1.90;;;5.70;99.90;;;;;;5019956;28;20034;-58
2021/12/14 03:39:43;;;;;;;2.58;1.90;;;5.80;99.90;;;;;;5012187;28;20715;-59
2021/12/14 03:42:14;;;;;;;3.70;2.10;;;5.80;99.90;;;;;;5018341;28;20501;-60
2021/12/14 03:44:47;;;;;;;3.95;2.25;;;5.80;99.90;;;;;;5019381;28;20677;-58
2021/12/14 03:47:18;;;;;;;2.83;2.08;;;5.70;99.90;;;;;;5021138;28;20095;-58
2021/12/14 03:49:47;;;;;;;4.97;2.40;;;5.70;99.90;;;;;;5020482;28;20041;-57
2021/12/14 03:52:16;;;;;;;4.47;2.40;;;5.70;99.90;;;;;;5025886;28;20069;-58
2021/12/14 03:54:42;;;;;;;4.65;2.50;;;5.70;99.90;;;;;;5023502;28;20046;-58
2021/12/14 03:57:09;;;;;;;4.22;2.25;;;5.70;99.90;;;;;;5029710;28;20128;-56
2021/12/14 03:59:37;;;;;;;3.50;2.08;;;5.70;99.90;;;;;;5022730;28;20038;-56
2021/12/14 04:02:06;;;;;;;6.05;2.90;;;5.80;99.90;;;;;;5020644;28;20387;-58
2021/12/14 04:04:39;;;;;;;5.07;2.70;;;5.70;99.90;;;;;;5024262;28;20049;-58
2021/12/14 04:07:10;;;;;;;4.10;2.25;;;5.70;99.90;;;;;;5019902;28;20107;-58
2021/12/14 04:09:37;;;;;;;4.15;2.55;;;5.70;99.90;;;;;;5019718;28;20053;-54
2021/12/14 04:12:07;;;;;;;5.43;2.83;;;5.70;99.90;;;;;;5020945;28;20723;-55
2021/12/14 04:14:38;;;;;;;3.38;2.50;;;5.80;99.90;;;;;;5018825;28;20520;-58
2021/12/14 04:17:03;;;;;;;4.82;3.13;;;5.70;99.90;;;;;;5021953;28;20045;-56
2021/12/14 04:19:31;;;;;;;4.55;2.83;;;5.60;99.90;;;;;;5023729;28;20041;-57
2021/12/14 04:22:05;;;;;;;5.20;2.80;;;5.70;99.90;;;;;;5023877;28;20049;-57
2021/12/14 04:24:34;;;;;;;4.80;2.90;;;5.70;99.90;;;;;;5021979;28;20131;-58
2021/12/14 04:27:04;;;;;;;8.02;2.55;;;5.70;99.90;;;;;;5028706;28;20048;-55
2021/12/14 04:29:30;;;;;;;9.57;2.80;;;5.80;99.90;;;;;;5023382;28;20412;-58
2021/12/14 04:31:56;;;;;;;4.05;2.55;;;5.80;99.90;;;;;;5026292;28;20072;-56
2021/12/14 04:34:22;;;;;;;7.72;3.00;;;5.80;99.90;;;;;;5025212;28;20041;-56
2021/12/14 04:36:51;;;;;;;6.07;3.47;;;5.80;99.90;;;;;;5025059;28;20053;-57
2021/12/14 04:53:12;;;;;;;8.05;3.47;;;5.80;99.90;;;;;;5024726;28;20029;-57
2021/12/14 04:55:43;;;;;;;7.78;3.58;;;5.80;99.90;;;;;;5021665;28;20537;-55
2021/12/14 04:58:09;;;;;;;6.45;3.35;;;5.80;99.90;;;;;;5027408;28;20116;-57
2021/12/14 05:00:42;;;;;;;5.68;3.30;;;5.80;99.90;;;;;;5022902;28;20053;-58
2021/12/14 05:03:21;;;;;;;5.43;3.17;;;5.90;99.90;;;;;;5017523;28;20033;-58
2021/12/14 05:05:50;;;;;;;7.70;3.78;;;5.80;99.90;;;;;;5024146;28;20056;-56
2021/12/14 05:11:03;;;;;;;7.82;3.45;;;5.80;99.90;;;;;;5023155;28;20481;-59
2021/12/14 05:13:41;;;;;;;7.93;3.20;;;5.90;99.90;;;;;;5025947;28;20049;-57
2021/12/14 05:16:14;;;;;;;4.57;3.05;;;5.90;99.90;;;;;;5021439;28;20072;-58
2021/12/14 05:18:46;;;;;;;6.05;3.20;;;5.90;99.90;;;;;;5024504;28;20061;-55
2021/12/14 05:21:12;;;;;;;6.95;3.67;;;5.90;99.90;;;;;;5023799;28;20034;-56
2021/12/14 05:23:37;;;;;;;6.85;3.80;;;5.80;99.90;;;;;;5026810;28;20037;-58
2021/12/14 05:26:03;;;;;;;;;;;5.80;99.90;;;;;;5023470;28;20531;-59
2021/12/14 05:28:30;;;;;;;7.85;3.58;;;5.90;99.90;;;;;;5026530;28;19944;-58
2021/12/14 05:30:58;;;;;;;7.30;3.95;;;5.80;99.90;;;;;;5021698;28;20041;-59
2021/12/14 05:33:28;;;;;;;7.35;3.60;;;5.80;99.90;;;;;;5021281;28;20049;-58
2021/12/14 05:35:59;;;;;;;6.95;3.13;;;5.80;99.90;;;;;;5018646;28;20091;-59
2021/12/14 05:38:41;;;;;;;6.60;3.35;;;5.70;99.90;;;;;;5025724;28;20050;-57
2021/12/14 05:43:06;;;;;;;7.32;3.50;;;5.80;99.90;;;;;;5022982;28;20456;-58
2021/12/14 05:44:02;;;;;;;3.85;2.20;;;5.80;99.90;;;;;;5022305;28;20437;-55
2021/12/14 05:46:29;;;;;;;5.03;2.40;;;5.80;99.90;;;;;;5022693;28;20041;-58
2021/12/14 05:49:02;;;;;;;5.50;2.88;;;5.80;99.90;;;;;;5031900;28;20378;-54
2021/12/14 05:51:29;;;;;;;6.65;2.65;;;5.80;99.90;;;;;;5025212;28;20049;-58
2021/12/14 05:53:56;;;;;;;5.75;3.10;;;5.80;99.90;;;;;;5018183;28;20042;-55
2021/12/14 05:56:23;;;;;;;5.32;2.80;;;5.80;99.90;;;;;;5025218;28;20076;-57
2021/12/14 05:58:51;;;;;;;4.63;2.70;;;5.80;99.90;;;;;;5026108;28;20040;-57
2021/12/14 06:01:21;;;;;;;4.32;2.38;;;5.90;99.90;;;;;;5023067;28;20034;-55
2021/12/14 06:03:56;;;;;;;4.15;1.98;;;5.90;99.90;;;;;;5025348;28;20065;-57
2021/12/14 06:06:47;;;;;;;2.90;1.60;;;5.80;99.90;;;;;;5023025;28;20044;-58
2021/12/14 06:09:28;;;;;;;4.15;2.20;;;5.80;99.90;;;;;;5021124;28;20038;-57
2021/12/14 06:12:00;;;;;;;2.70;1.50;;;5.90;99.90;;;;;;5022779;28;20049;-61
2021/12/14 06:14:28;;;;;;;3.15;1.95;;;5.80;99.90;;;;;;5021809;28;20628;-57
2021/12/14 06:16:57;;;;;;;3.45;1.88;;;5.80;99.90;;;;;;5024430;28;20045;-58
2021/12/14 06:19:32;;;;;;;3.42;1.73;;;5.80;99.90;;;;;;5023734;28;20600;-60
2021/12/14 06:22:00;;;;;;;4.00;2.13;;;5.80;99.90;;;;;;5025760;28;20045;-55
2021/12/14 06:24:30;;;;;;;3.88;2.03;;;5.90;99.90;;;;;;5022028;28;20074;-56
2021/12/14 06:26:59;;;;;;;4.60;2.22;;;5.90;99.90;;;;;;5024601;28;20049;-57
2021/12/14 06:29:37;;;;;;;4.72;2.47;;;5.90;99.90;;;;;;5020115;28;20041;-59
2021/12/14 06:32:09;;;;;;;3.33;1.70;;;5.80;99.90;;;;;;5024554;28;20033;-56
2021/12/14 06:34:34;;;;;;;4.40;2.47;;;5.80;99.90;;;;;;5017961;28;20060;-58
2021/12/14 06:40:08;;;;;;;6.00;2.80;;;5.80;99.90;;;;;;5018959;28;20037;-58
2021/12/14 06:42:38;;;;;;;5.00;2.50;;;5.90;99.90;;;;;;5023846;28;20176;-58
2021/12/14 06:45:11;;;;;;;4.30;2.38;;;5.90;99.90;;;;;;5015534;28;20152;-59
2021/12/14 06:47:38;;;;;;;7.05;2.50;;;5.90;99.90;;;;;;5033460;28;20041;-59
2021/12/14 06:50:09;;;;;;;4.95;2.55;;;5.80;99.90;;;;;;5039205;28;20037;-58
2021/12/14 06:52:34;;;;;;;4.22;2.45;;;5.90;99.90;;;;;;5042111;28;20104;-58
2021/12/14 06:55:01;;;;;;;3.40;2.25;;;5.80;99.90;;;;;;5038121;28;20163;-57
2021/12/14 06:57:26;;;;;;;3.58;2.13;;;5.80;99.90;;;;;;5041289;28;20094;-59
2021/12/14 06:59:56;;;;;;;5.63;3.00;;;5.90;99.90;;;;;;5034757;28;20490;-58
2021/12/14 07:02:23;;;;;;;7.10;3.30;;;5.90;99.90;;;;;;5041321;28;20036;-58
2021/12/14 07:04:51;;;;;;;5.28;2.92;;;5.80;99.90;;;;;;5039270;28;20042;-55
2021/12/14 07:07:26;;;;;;;6.00;2.42;;;5.90;99.90;;;;;;5039700;28;20048;-58
2021/12/14 07:09:55;;;;;;;5.85;2.70;;;5.90;99.90;;;;;;5039016;28;20504;-57
2021/12/14 07:12:24;;;;;;;4.15;2.65;;;5.90;99.90;;;;;;5043191;28;20078;-60
2021/12/14 07:14:53;;;;;;;5.75;2.90;;;5.80;99.90;;;;;;5038049;28;20049;-58
2021/12/14 07:17:30;;;;;;;11.73;2.80;;;5.80;99.90;;;;;;5031615;28;20052;-58
2021/12/14 07:20:11;;;;;;;4.90;2.70;;;5.80;99.90;;;;;;5036308;28;20037;-57
2021/12/14 07:22:43;;;;;;;4.53;2.38;;;5.80;99.90;;;;;;5045761;28;20079;-57
2021/12/14 07:25:38;;;;;;;6.43;2.70;;;5.90;99.90;;;;;;5040211;28;20068;-55
2021/12/14 07:28:16;;;;;;;4.45;2.45;;;5.90;99.90;;;;;;5047344;28;20049;-56
2021/12/14 07:30:50;;;;;;;5.70;3.55;;;5.90;99.90;;;;;;5042766;28;20128;-57
2021/12/14 07:33:25;;;;;;;6.90;3.25;;;5.80;99.90;;;;;;5044314;28;20041;-55
2021/12/14 07:36:21;;;;;;;8.25;3.70;;;5.80;99.90;;;;;;5042582;28;20120;-58
2021/12/14 07:38:53;;;;;;;7.40;4.03;;;5.80;99.90;;;;;;5032607;28;20501;-57
2021/12/14 07:41:39;;;;;;;5.68;3.38;;;5.70;99.90;;;;;;5045620;28;20036;-59
2021/12/14 07:44:13;;;;;;;7.28;3.25;;;5.80;99.90;;;;;;5046883;28;20481;-56
2021/12/14 07:46:48;;;;;;;6.43;3.58;;;5.80;99.90;;;;;;5044224;28;20088;-58
2021/12/14 07:49:43;;;;;;;7.17;3.80;;;5.80;99.90;;;;;;5044493;28;20038;-57
2021/12/14 07:52:08;;;;;;;5.55;3.42;;;5.80;99.90;;;;;;5043885;28;20267;-54
2021/12/14 07:54:58;;;;;;;12.50;3.70;;;5.80;99.90;;;;;;5039000;28;20108;-59
2021/12/14 07:57:27;;;;;;;7.72;4.32;;;5.70;99.90;;;;;;5046289;28;20045;-58
2021/12/14 07:59:58;;;;;;;4.88;2.58;;;5.70;99.90;;;;;;5045857;28;20037;-59
2021/12/14 08:02:32;;;;;;;4.47;2.30;;;5.70;99.90;;;;;;5044059;28;20072;-57
2021/12/14 08:05:16;;;;;;;3.30;2.05;;;5.70;99.90;;;;;;5041188;28;20041;-57
2021/12/14 08:08:09;;;;;;;4.47;2.50;;;5.70;99.90;;;;;;5045433;28;20730;-56
2021/12/14 08:10:40;;;;;;;3.30;2.30;;;5.70;99.90;;;;;;5040316;28;20045;-60
2021/12/14 08:13:14;;;;;;;3.60;2.17;;;5.70;99.90;;;;;;5044037;28;20033;-58
2021/12/14 08:15:50;;;;;;;3.42;2.03;;;5.70;99.90;;;;;;5042155;28;20444;-56
2021/12/14 08:18:27;;;;;;;2.92;2.03;;;5.80;99.90;;;;;;5046816;28;20477;-59
2021/12/14 08:21:08;;;;;;;4.05;2.63;;;5.80;99.90;;;;;;5038821;28;20048;-56
2021/12/14 08:23:35;;;;;;;2.88;1.85;;;5.80;99.90;;;;;;5036060;28;20103;-58
2021/12/14 08:26:18;;;;;;;3.63;2.60;;;5.90;99.90;;;;;;5038706;28;20045;-59
2021/12/14 08:28:58;;;;;;;4.45;2.35;;;5.90;99.90;;;;;;5037615;28;20459;-53
2021/12/14 08:31:31;;;;;;;5.60;2.90;;;5.90;99.90;;;;;;5042314;28;20052;-61
2021/12/14 08:34:01;;;;;;;3.72;2.45;;;5.90;99.90;;;;;;5046751;28;20560;-61
2021/12/14 08:36:35;;;;;;;3.38;2.25;;;5.80;99.90;;;;;;5047735;28;20056;-60
2021/12/14 08:39:19;;;;;;;7.15;2.63;;;5.80;99.90;;;;;;5043461;28;20037;-58
2021/12/14 08:41:51;;;;;;;3.40;2.20;;;5.80;99.90;;;;;;5042064;28;20115;-56
2021/12/14 08:44:33;;;;;;;3.42;2.10;;;5.80;99.90;;;;;;5042865;28;20041;-54
2021/12/14 08:46:59;;;;;;;5.97;3.08;;;5.80;99.90;;;;;;5044695;28;20048;-58
2021/12/14 08:49:25;;;;;;;4.47;2.58;;;5.90;99.90;;;;;;5042386;28;20037;-59
2021/12/14 08:51:50;;;;;;;;;;;6.00;99.90;;;;;;5039875;28;20480;-55
2021/12/14 08:54:21;;;;;;;4.15;2.20;;;5.90;99.90;;;;;;5043628;28;19943;-57
2021/12/14 08:56:52;;;;;;;2.80;2.03;;;6.00;99.90;;;;;;5048151;28;20485;-58
2021/12/14 08:59:18;;;;;;;4.60;2.20;;;6.00;99.90;;;;;;5044699;28;20506;-60
2021/12/14 09:01:44;;;;;;;4.43;2.13;;;6.10;99.90;;;;;;5045379;28;20045;-59
2021/12/14 09:04:15;;;;;;;3.97;2.00;;;6.10;99.90;;;;;;5037041;28;20073;-57
2021/12/14 09:06:45;;;;;;;6.07;2.45;;;6.10;99.90;;;;;;5042960;28;20037;-59
2021/12/14 09:09:16;;;;;;;3.00;2.00;;;6.10;99.90;;;;;;5044155;28;20041;-59
2021/12/14 09:11:49;;;;;;;2.67;1.63;;;6.10;99.90;;;;;;5041291;28;20041;-59
2021/12/14 09:14:17;;;;;;;2.47;1.70;;;6.10;99.90;;;;;;5041493;28;20044;-58
2021/12/14 09:16:47;;;;;;;3.45;2.10;;;6.00;99.90;;;;;;5042556;28;20056;-58
2021/12/14 09:19:25;;;;;;;2.10;1.67;;;6.00;99.90;;;;;;5043593;28;20048;-58
2021/12/14 09:21:54;;;;;;;2.67;1.60;;;6.10;99.90;;;;;;5040826;28;20041;-59
2021/12/14 09:24:22;;;;;;;3.47;1.88;;;6.10;99.90;;;;;;5041861;28;20048;-59
2021/12/14 09:26:56;;;;;;;3.55;1.73;;;6.10;99.90;;;;;;5042532;28;20040;-59
2021/12/14 09:29:24;;;;;;;5.38;2.17;;;6.10;99.90;;;;;;5039641;28;20049;-59
2021/12/14 09:31:52;;;;;;;2.90;1.77;;;6.00;99.90;;;;;;5044904;28;20094;-59
2021/12/14 09:34:21;;;;;;;3.60;2.00;;;6.00;99.90;;;;;;5041103;28;20048;-58
2021/12/14 09:36:50;;;;;;;2.30;1.70;;;6.00;99.90;;;;;;5042457;28;21082;-59
2021/12/14 09:39:29;;;;;;;3.75;2.05;;;6.10;99.90;;;;;;5039793;28;20314;-59
2021/12/14 09:41:58;;;;;;;2.50;1.58;;;6.10;99.90;;;;;;5044435;28;20056;-59
2021/12/14 09:44:27;;;;;;;3.20;1.88;;;6.10;99.90;;;;;;5043152;28;20072;-57
2021/12/14 09:46:55;;;;;;;3.03;2.13;;;6.10;99.90;;;;;;5042772;28;20045;-59
2021/12/14 09:49:21;;;;;;;4.15;2.33;;;6.10;99.90;;;;;;5044234;28;20120;-57
2021/12/14 09:52:05;;;;;;;2.30;1.65;;;6.10;99.90;;;;;;5046549;28;20182;-57
2021/12/14 09:54:31;;;;;;;4.07;2.33;;;6.10;99.90;;;;;;5044146;28;20078;-55
2021/12/14 09:57:09;;;;;;;4.50;2.15;;;6.10;99.90;;;;;;5033188;28;20045;-58
2021/12/14 09:59:36;;;;;;;3.25;2.00;;;6.10;99.90;;;;;;5043786;28;20048;-57
2021/12/14 10:02:18;;;;;;;3.67;1.90;;;6.00;99.90;;;;;;5042172;28;20069;-58
2021/12/14 10:04:50;;;;;;;3.53;2.13;;;6.10;99.90;;;;;;5039419;28;20080;-58
2021/12/14 10:07:17;;;;;;;4.25;2.30;;;6.10;99.90;;;;;;5041521;28;20040;-58
2021/12/14 10:09:47;;;;;;;4.65;3.00;;;6.10;99.90;;;;;;5035544;28;20494;-55
2021/12/14 10:15:03;;;;;;;5.65;3.53;;;6.10;99.90;;;;;;5039649;28;20099;-58
2021/12/14 10:17:29;;;;;;;7.45;4.25;;;6.00;99.90;;;;;;5046520;28;20487;-56
2021/12/14 10:19:55;;;;;;;7.55;4.70;;;6.00;99.90;;;;;;5042749;28;20493;-58
2021/12/14 10:22:26;;;;;;;9.38;6.13;;;6.10;99.90;;;;;;5044044;28;20413;-56
2021/12/14 10:25:01;;;;;;;10.52;6.28;;;6.10;99.90;;;;;;5039882;28;20053;-56
2021/12/14 10:27:30;;;;;;;8.40;5.82;;;6.10;99.90;;;;;;5040612;28;20133;-57
2021/12/14 10:29:59;;;;;;;9.60;5.43;;;6.00;99.90;;;;;;5050168;28;20041;-55
2021/12/14 10:32:29;;;;;;;8.27;5.72;;;6.00;99.90;;;;;;5043630;28;20052;-51
2021/12/14 10:35:00;;;;;;;9.77;5.95;;;6.00;99.90;;;;;;5041513;28;20040;-58
2021/12/14 10:37:40;;;;;;;9.90;6.65;;;6.00;99.90;;;;;;5045513;28;20037;-56
2021/12/14 10:43:12;;;;;;;9.52;6.35;;;6.10;99.90;;;;;;5043052;28;20159;-57
2021/12/14 10:45:45;;;;;;;9.20;6.18;;;6.10;99.90;;;;;;5041878;28;20037;-57
2021/12/14 10:48:11;;;;;;;9.38;6.10;;;6.00;99.90;;;;;;5041747;28;20044;-57
2021/12/14 10:50:38;;;;;;;9.02;6.35;;;6.00;99.90;;;;;;5042990;28;20029;-57
2021/12/14 10:53:08;;;;;;;8.63;5.78;;;6.00;99.90;;;;;;5042613;28;20044;-57
2021/12/14 10:56:00;;;;;;;9.10;5.72;;;6.10;99.90;;;;;;5044010;28;20416;-55
2021/12/14 10:58:28;;;;;;;9.32;6.45;;;6.20;99.90;;;;;;5041748;28;20045;-57
2021/12/14 11:01:14;;;;;;;8.82;5.50;;;6.30;99.90;;;;;;5041408;28;20044;-53
2021/12/14 11:03:45;;;;;;;9.75;5.93;;;6.20;99.90;;;;;;5041658;28;20040;-55
2021/12/14 11:06:15;;;;;;;8.55;5.38;;;6.30;99.90;;;;;;5042688;28;20412;-58
2021/12/14 11:08:58;;;;;;;7.93;5.20;;;6.30;99.90;;;;;;5042168;28;20493;-57
2021/12/14 11:11:37;;;;;;;6.47;5.22;;;6.30;99.90;;;;;;5045473;28;20033;-57
2021/12/14 11:14:09;;;;;;;7.68;5.32;;;6.30;99.90;;;;;;5044501;28;20037;-58
2021/12/14 11:19:40;;;;;;;7.35;5.30;;;6.40;99.90;;;;;;5037799;28;20049;-57
2021/12/14 11:22:20;;;;;;;11.85;6.40;;;6.50;99.90;;;;;;5041940;28;20064;-58
2021/12/14 11:24:50;;;;;;;8.45;6.00;;;6.50;99.90;;;;;;5040850;28;20119;-58
2021/12/14 11:27:21;;;;;;;6.65;4.63;;;6.50;99.90;;;;;;5044293;28;20041;-56
2021/12/14 11:30:10;;;;;;;6.95;4.55;;;6.50;99.90;;;;;;5042573;28;20047;-57
2021/12/14 11:32:40;;;;;;;6.78;4.90;;;6.50;99.90;;;;;;5045689;28;20045;-57
2021/12/14 11:35:40;;;;;;;6.78;4.90;;;6.50;99.90;;;;;;5038571;28;20412;-59
2021/12/14 11:38:10;;;;;;;7.70;5.35;;;6.40;99.90;;;;;;5040112;28;20064;-58
2021/12/14 11:40:36;;;;;;;6.57;4.53;;;6.30;99.90;;;;;;5040286;28;20044;-56
2021/12/14 11:43:16;;;;;;;9.00;4.78;;;6.30;99.90;;;;;;5042306;28;20657;-57
2021/12/14 11:45:46;;;;;;;8.32;5.07;;;6.30;99.90;;;;;;5039189;28;20095;-61
2021/12/14 11:48:12;;;;;;;8.13;5.75;;;6.40;99.90;;;;;;5041476;28;20041;-59
2021/12/14 11:50:45;;;;;;;6.72;4.88;;;6.40;99.90;;;;;;5037219;28;20038;-63
2021/12/14 11:53:20;;;;;;;9.32;5.57;;;6.50;99.90;;;;;;5034142;28;20087;-60
2021/12/14 11:55:49;;;;;;;9.13;6.20;;;6.50;99.90;;;;;;5041516;28;20036;-60
2021/12/14 11:58:17;;;;;;;7.60;5.32;;;6.50;99.90;;;;;;5041698;28;20287;-61
2021/12/14 12:00:48;;;;;;;6.40;4.93;;;6.50;99.90;;;;;;5045208;28;20048;-58
2021/12/14 12:03:36;;;;;;;10.50;6.00;;;6.50;99.90;;;;;;5034784;28;20061;-58
2021/12/14 12:06:44;;;;;;;7.78;5.78;;;6.50;99.90;;;;;;5042798;28;20041;-55
2021/12/14 12:09:35;;;;;;;7.25;5.25;;;6.50;99.90;;;;;;5041542;28;20041;-57
2021/12/14 12:12:04;;;;;;;7.25;5.15;;;6.60;99.90;;;;;;5041157;28;20072;-57
2021/12/14 12:14:32;;;;;;;7.90;5.22;;;6.50;99.90;;;;;;5043583;28;20037;-59
2021/12/14 12:17:16;;;;;;;9.35;6.75;;;6.50;99.90;;;;;;5044980;28;20517;-55
2021/12/14 12:20:03;;;;;;;9.35;5.85;;;6.40;99.90;;;;;;5040846;28;20037;-58
2021/12/14 12:22:46;;;;;;;19.58;12.38;;;6.50;99.90;;;;;;5044979;28;20065;-55
2021/12/14 12:25:22;;;;;;;20.02;12.15;;;6.60;99.90;;;;;;5041453;28;20037;-53
2021/12/14 12:28:01;;;;;;;22.60;12.27;;;6.60;99.90;;;;;;5045137;28;20099;-57
2021/12/14 12:30:46;;;;;;;11.35;6.93;;;6.60;99.90;;;;;;5045178;28;20041;-53
2021/12/14 12:33:17;;;;;;;12.13;7.90;;;6.60;99.90;;;;;;5045187;28;20071;-55
2021/12/14 12:36:01;;;;;;;8.77;5.68;;;6.60;99.90;;;;;;5043726;28;20037;-55
2021/12/14 12:38:49;;;;;;;7.43;4.88;;;6.70;99.90;;;;;;5040265;28;20048;-58
2021/12/14 12:41:26;;;;;;;7.72;5.20;;;6.70;99.90;;;;;;5044850;28;20083;-58
2021/12/14 12:44:01;;;;;;;8.73;4.60;;;6.70;99.90;;;;;;5042052;28;20429;-57
2021/12/14 12:46:52;;;;;;;11.02;5.70;;;6.80;99.90;;;;;;5045607;28;20523;-58
2021/12/14 12:49:22;;;;;;;27.15;13.43;;;6.80;99.90;;;;;;5036123;28;20068;-56
2021/12/14 12:51:53;;;;;;;9.20;5.80;;;6.80;99.90;;;;;;5047258;28;20044;-57
2021/12/14 12:54:33;;;;;;;7.20;5.13;;;6.80;99.90;;;;;;5040149;28;20033;-57
2021/12/14 12:57:11;;;;;;;6.85;4.82;;;6.80;99.90;;;;;;5048406;28;20051;-57
2021/12/14 12:59:43;;;;;;;6.50;4.00;;;6.70;99.90;;;;;;5045127;28;20047;-57
2021/12/14 13:02:43;;;;;;;7.75;4.90;;;6.80;99.90;;;;;;5044274;28;20151;-54
2021/12/14 13:05:46;;;;;;;6.20;4.20;;;6.80;99.90;;;;;;5034910;28;20068;-55
2021/12/14 13:08:24;;;;;;;6.68;4.70;;;6.80;99.90;;;;;;5045803;28;20420;-57
2021/12/14 13:10:56;;;;;;;7.00;4.82;;;6.80;99.90;;;;;;5031789;28;20033;-57
2021/12/14 13:13:31;;;;;;;9.65;4.78;;;6.80;99.90;;;;;;5042907;28;20420;-57
2021/12/14 13:16:02;;;;;;;7.03;5.40;;;6.70;99.90;;;;;;5044515;28;20041;-61
2021/12/14 13:18:34;;;;;;;7.75;4.22;;;6.80;99.90;;;;;;5045135;28;20962;-56
2021/12/14 13:21:11;;;;;;;7.90;4.78;;;6.80;99.90;;;;;;5041557;28;20049;-59
2021/12/14 13:24:10;;;;;;;7.32;4.72;;;6.80;99.90;;;;;;5039538;28;20029;-58
2021/12/14 13:26:53;;;;;;;7.07;4.07;;;6.90;99.90;;;;;;5034343;28;20048;-56
2021/12/14 13:29:33;;;;;;;8.13;4.68;;;7.00;99.90;;;;;;5042022;28;20045;-58
2021/12/14 13:32:27;;;;;;;6.40;3.60;;;6.90;99.90;;;;;;5042292;28;20041;-55
2021/12/14 13:34:59;;;;;;;5.72;3.95;;;6.90;99.90;;;;;;5041316;28;20037;-56
2021/12/14 13:37:37;;;;;;;9.77;4.25;;;7.00;99.90;;;;;;5041947;28;20049;-56
2021/12/14 13:40:12;;;;;;;7.32;4.45;;;7.10;99.90;;;;;;5043885;28;20606;-58
2021/12/14 13:43:00;;;;;;;6.95;4.07;;;7.10;99.90;;;;;;5046678;28;20190;-57
2021/12/14 13:45:35;;;;;;;8.45;4.00;;;7.10;99.90;;;;;;5022975;28;20455;-58
2021/12/14 13:48:04;;;;;;;6.00;3.60;;;7.00;99.90;;;;;;5046909;28;20041;-55
2021/12/14 13:50:48;;;;;;;7.00;4.25;;;7.00;99.90;;;;;;5041887;28;20044;-59
2021/12/14 13:53:14;;;;;;;6.43;4.13;;;7.10;99.90;;;;;;5038267;28;20695;-55
2021/12/14 13:55:52;;;;;;;5.18;3.63;;;7.00;99.90;;;;;;5043996;28;20036;-57
2021/12/14 13:58:30;;;;;;;7.47;4.38;;;7.10;99.90;;;;;;5038017;28;20067;-58
2021/12/14 14:01:10;;;;;;;6.90;4.50;;;7.10;99.90;;;;;;5043625;28;20040;-57
2021/12/14 14:03:43;;;;;;;5.20;3.97;;;7.10;99.90;;;;;;5041475;28;20128;-57
2021/12/14 14:06:13;;;;;;;6.88;4.68;;;7.10;99.90;;;;;;5046084;28;20059;-58
2021/12/14 14:08:48;;;;;;;8.20;4.80;;;7.00;99.90;;;;;;5042268;28;20094;-56
2021/12/14 14:11:34;;;;;;;5.35;3.58;;;7.00;99.90;;;;;;5035233;28;20091;-58